Wyndham, Australia
Current Conditions -  °F | °C
As of 12:00 PM on Thursday 29 Jan 2015 (Local Time) from YPKU Reporting Station
Broken Clouds Broken Clouds  
Wind Chill: 90°   Ceiling: 3400
Heat Index: 98°   Visibility: 6mi
Dew Point: 73°   Wind: 3mph
Humidity: 59%   Direction: 180°S
Pressure: 29.71"   Gusts: NA
Location:  15.48°S, 128.12°E
Report Text: YPKU 290400Z AUTO 18003KT 9999 // BKN034 32/23 Q1006
Loading
Personal Weather Stations






























Interactive Weather Map New forecast layout! Learn more

10-Day Weather Forecast

Advertisements
Track Severe Weather on mobile